Time;durP1;ratioP1;P1;durP2;ratioP2;P2;SDS_P1;SDS_P2;PMS_P1;PMS_P2;Temp;Humidity;BMP_temperature;BMP_pressure;BME280_temperature;BME280_humidity;BME280_pressure;Samples;Min_cycle;Max_cycle;Signal;HPM_P1;HPM_P2
2022/04/16 00:01:52;;;;;;;2.73;2.53;;;14.90;86.40;;;;;;4990837;28;20549;-75
2022/04/16 00:04:18;;;;;;;2.83;2.60;;;14.90;86.70;;;;;;4993371;28;20178;-75
2022/04/16 00:06:44;;;;;;;2.90;2.70;;;14.90;86.80;;;;;;4995895;28;20425;-75
2022/04/16 00:09:09;;;;;;;2.70;2.50;;;14.80;87.20;;;;;;4996338;28;20194;-75
2022/04/16 00:11:37;;;;;;;2.80;2.50;;;14.80;87.00;;;;;;4993271;28;20815;-75
2022/04/16 00:14:03;;;;;;;3.70;2.73;;;14.90;86.80;;;;;;4987862;28;20174;-75
2022/04/16 00:16:29;;;;;;;2.73;2.43;;;15.00;86.80;;;;;;4991494;28;20451;-75
2022/04/16 00:18:58;;;;;;;3.07;2.77;;;15.00;86.60;;;;;;4995464;28;20460;-74
2022/04/16 00:21:24;;;;;;;2.50;2.30;;;15.00;86.50;;;;;;4993717;28;20590;-75
2022/04/16 00:23:51;;;;;;;3.70;2.90;;;14.90;86.70;;;;;;4995821;28;20436;-75
2022/04/16 00:26:18;;;;;;;2.60;2.40;;;14.90;86.70;;;;;;4991833;28;20528;-75
2022/04/16 00:28:44;;;;;;;2.90;2.60;;;14.90;86.80;;;;;;4992041;28;20429;-75
2022/04/16 00:31:11;;;;;;;3.00;2.70;;;14.80;87.10;;;;;;4995736;28;20537;-75
2022/04/16 00:33:37;;;;;;;2.97;2.63;;;14.60;87.30;;;;;;4996134;28;20186;-75
2022/04/16 00:36:03;;;;;;;3.37;3.07;;;14.60;87.80;;;;;;4994303;28;20444;-75
2022/04/16 00:38:29;;;;;;;3.10;2.80;;;14.50;87.70;;;;;;4997821;28;21100;-76
2022/04/16 00:40:55;;;;;;;3.00;2.67;;;14.60;88.40;;;;;;4993018;28;20237;-75
2022/04/16 00:43:28;;;;;;;3.77;2.87;;;14.60;88.10;;;;;;4991563;28;20174;-74
2022/04/16 00:45:54;;;;;;;3.43;3.13;;;14.60;88.50;;;;;;4996303;28;20955;-74
2022/04/16 00:48:21;;;;;;;3.13;2.83;;;14.60;88.20;;;;;;4992531;28;20486;-75
2022/04/16 00:50:54;;;;;;;2.70;2.50;;;14.60;88.20;;;;;;4993592;28;20507;-74
2022/04/16 00:53:20;;;;;;;9.33;3.00;;;14.50;88.40;;;;;;4993776;28;20773;-74
2022/04/16 00:55:47;;;;;;;3.47;2.80;;;14.40;88.60;;;;;;4994675;28;20994;-74
2022/04/16 00:58:13;;;;;;;5.77;2.97;;;14.10;88.80;;;;;;4995363;28;20881;-75
2022/04/16 01:00:38;;;;;;;3.47;2.77;;;14.00;89.60;;;;;;4996496;28;20475;-75
2022/04/16 01:03:06;;;;;;;2.97;2.73;;;14.10;90.00;;;;;;4994604;28;20182;-75
2022/04/16 01:05:31;;;;;;;5.40;2.90;;;14.20;89.70;;;;;;4994207;28;20182;-74
2022/04/16 01:07:59;;;;;;;2.83;2.57;;;14.20;89.50;;;;;;4993772;28;20443;-74
2022/04/16 01:10:28;;;;;;;2.77;2.57;;;14.10;89.70;;;;;;4995052;28;20221;-75
2022/04/16 01:12:58;;;;;;;3.20;2.50;;;14.20;90.00;;;;;;4998134;28;20919;-75
2022/04/16 01:15:24;;;;;;;3.57;2.90;;;14.20;89.60;;;;;;4993476;28;20437;-74
2022/04/16 01:17:51;;;;;;;2.90;2.70;;;14.30;89.90;;;;;;4993574;28;20439;-75
2022/04/16 01:20:18;;;;;;;4.23;2.90;;;14.30;89.70;;;;;;4994602;28;20468;-74
2022/04/16 01:22:48;;;;;;;3.07;2.77;;;14.10;90.10;;;;;;4996423;28;20441;-74
2022/04/16 01:25:14;;;;;;;2.77;2.47;;;14.00;90.20;;;;;;4999084;28;20483;-74
2022/04/16 01:27:45;;;;;;;3.00;2.70;;;14.00;90.40;;;;;;4997733;28;20432;-75
2022/04/16 01:30:16;;;;;;;3.20;2.90;;;13.90;90.40;;;;;;4997397;28;20468;-74
2022/04/16 01:32:42;;;;;;;3.07;2.77;;;13.80;90.70;;;;;;5000945;28;20531;-75
2022/04/16 01:35:08;;;;;;;3.00;2.70;;;13.90;90.70;;;;;;4993805;28;20528;-75
2022/04/16 01:37:35;;;;;;;3.93;3.00;;;13.70;90.70;;;;;;4994329;28;20539;-76
2022/04/16 01:40:01;;;;;;;3.70;2.97;;;13.60;91.10;;;;;;4994410;28;20849;-75
2022/04/16 01:42:32;;;;;;;3.23;2.93;;;13.50;91.10;;;;;;4994603;28;20535;-74
2022/04/16 01:45:02;;;;;;;3.30;3.00;;;13.60;91.30;;;;;;4993608;28;20429;-75
2022/04/16 01:47:28;;;;;;;3.60;3.00;;;13.60;91.30;;;;;;4995467;28;20438;-74
2022/04/16 01:49:55;;;;;;;3.57;3.27;;;13.60;91.40;;;;;;4996745;28;20466;-75
2022/04/16 01:52:23;;;;;;;3.50;3.20;;;13.50;91.40;;;;;;4997797;28;20440;-74
2022/04/16 01:54:49;;;;;;;3.00;2.70;;;13.50;91.50;;;;;;4995031;28;21316;-76
2022/04/16 01:57:18;;;;;;;3.13;2.83;;;13.50;91.70;;;;;;4995614;28;20451;-75
2022/04/16 01:59:44;;;;;;;3.67;3.37;;;13.50;91.70;;;;;;4992749;28;20627;-75
2022/04/16 02:02:10;;;;;;;3.00;2.47;;;13.50;91.80;;;;;;4992612;28;20429;-75
2022/04/16 02:04:36;;;;;;;3.10;2.80;;;13.50;91.60;;;;;;4997187;28;20490;-75
2022/04/16 02:07:01;;;;;;;3.37;3.07;;;13.50;91.80;;;;;;4992940;28;20177;-74
2022/04/16 02:09:27;;;;;;;3.73;2.87;;;13.50;91.80;;;;;;4991567;28;20197;-75
2022/04/16 02:11:52;;;;;;;3.37;3.00;;;13.30;91.90;;;;;;4995479;28;20246;-75
2022/04/16 02:14:18;;;;;;;3.60;2.80;;;13.40;92.00;;;;;;4996478;28;20767;-74
2022/04/16 02:16:43;;;;;;;3.40;3.10;;;13.30;92.10;;;;;;4992904;28;20189;-75
2022/04/16 02:19:09;;;;;;;4.43;3.17;;;13.30;92.30;;;;;;4993988;28;20310;-75
2022/04/16 02:21:35;;;;;;;3.60;3.30;;;13.30;92.20;;;;;;4995691;28;20199;-75
2022/04/16 02:24:01;;;;;;;4.13;3.20;;;13.20;92.40;;;;;;4991877;28;20566;-74
2022/04/16 02:26:27;;;;;;;3.53;3.23;;;13.10;92.50;;;;;;4996251;28;20928;-75
2022/04/16 02:28:53;;;;;;;3.40;3.10;;;13.20;92.60;;;;;;4995074;28;20440;-75
2022/04/16 02:31:18;;;;;;;3.30;3.00;;;13.00;92.90;;;;;;4994250;28;20241;-75
2022/04/16 02:33:44;;;;;;;3.30;3.00;;;13.10;92.90;;;;;;4997782;28;20185;-76
2022/04/16 02:36:11;;;;;;;3.53;3.03;;;13.10;92.90;;;;;;4994085;28;20193;-75
2022/04/16 02:38:40;;;;;;;3.37;3.07;;;13.00;93.00;;;;;;4997423;28;20596;-74
2022/04/16 02:41:06;;;;;;;10.43;3.40;;;13.10;93.00;;;;;;4997151;28;20992;-75
2022/04/16 02:43:31;;;;;;;3.40;3.10;;;13.10;92.90;;;;;;4994494;28;20452;-75
2022/04/16 02:48:41;;;;;;;3.10;2.80;;;13.00;93.00;;;;;;4991440;28;20189;-74
2022/04/16 02:51:08;;;;;;;3.87;3.53;;;12.90;93.50;;;;;;4988399;28;20452;-74
2022/04/16 02:53:33;;;;;;;3.30;2.77;;;12.70;93.70;;;;;;4995605;28;20247;-74
2022/04/16 02:56:00;;;;;;;4.03;3.53;;;12.80;93.90;;;;;;4993653;28;20420;-74
2022/04/16 02:58:26;;;;;;;4.60;3.43;;;12.80;93.80;;;;;;4993805;28;20445;-74
2022/04/16 03:00:54;;;;;;;4.43;3.77;;;12.80;93.90;;;;;;4993019;28;20463;-74
2022/04/16 03:03:21;;;;;;;3.33;3.03;;;12.80;93.80;;;;;;4995197;28;20656;-73
2022/04/16 03:05:47;;;;;;;3.33;3.03;;;12.80;94.10;;;;;;4993240;28;20944;-74
2022/04/16 03:08:15;;;;;;;3.27;2.97;;;12.80;94.10;;;;;;4990075;28;20447;-74
2022/04/16 03:10:41;;;;;;;3.23;2.90;;;12.90;94.10;;;;;;4994309;28;20278;-74
2022/04/16 03:13:07;;;;;;;4.03;3.53;;;12.70;94.20;;;;;;4990952;28;20448;-74
2022/04/16 03:18:18;;;;;;;3.53;3.10;;;12.70;94.50;;;;;;4990190;28;20477;-73
2022/04/16 03:20:44;;;;;;;3.50;3.20;;;12.70;94.70;;;;;;4991807;28;20472;-74
2022/04/16 03:23:10;;;;;;;3.47;3.03;;;12.70;94.60;;;;;;4990811;28;20813;-73
2022/04/16 03:25:40;;;;;;;4.23;3.50;;;12.60;94.50;;;;;;4994438;28;20425;-73
2022/04/16 03:28:06;;;;;;;3.27;2.97;;;12.70;94.50;;;;;;4992433;28;20439;-73
2022/04/16 03:30:32;;;;;;;3.23;2.93;;;12.70;94.60;;;;;;4995505;28;20506;-74
2022/04/16 03:32:57;;;;;;;3.43;3.13;;;12.70;95.00;;;;;;4988958;28;20441;-73
2022/04/16 03:35:23;;;;;;;4.43;3.57;;;12.60;94.70;;;;;;4990283;28;20178;-73
2022/04/16 03:37:50;;;;;;;3.07;2.83;;;12.60;94.90;;;;;;4991484;28;20192;-73
2022/04/16 03:40:16;;;;;;;3.63;3.33;;;12.40;95.00;;;;;;4989744;28;20476;-73
2022/04/16 03:42:50;;;;;;;3.90;3.60;;;12.20;95.30;;;;;;4991984;28;20447;-73
2022/04/16 03:45:20;;;;;;;3.47;3.17;;;12.40;95.50;;;;;;4993133;28;20424;-73
2022/04/16 03:47:49;;;;;;;3.60;3.30;;;12.40;95.40;;;;;;4995244;28;20435;-75
2022/04/16 03:50:17;;;;;;;7.10;5.40;;;12.20;95.50;;;;;;4997706;28;20460;-76
2022/04/16 03:52:44;;;;;;;3.70;3.40;;;12.20;95.90;;;;;;4995183;28;20432;-76
2022/04/16 04:00:47;;;;;;;3.97;3.57;;;12.30;95.80;;;;;;4994923;28;20529;-75
2022/04/16 04:03:13;;;;;;;3.33;3.03;;;12.40;95.80;;;;;;4998016;28;20831;-75
2022/04/16 04:05:40;;;;;;;3.60;3.30;;;12.30;95.90;;;;;;4998357;28;20181;-75
2022/04/16 04:08:06;;;;;;;3.77;3.40;;;12.40;95.80;;;;;;4995960;28;20499;-76
2022/04/16 04:10:33;;;;;;;3.97;3.60;;;12.10;96.10;;;;;;4998146;28;21042;-75
2022/04/16 04:12:58;;;;;;;4.00;3.57;;;12.10;96.30;;;;;;4998552;28;20441;-76
2022/04/16 04:15:24;;;;;;;4.00;3.17;;;12.20;96.20;;;;;;5003392;28;20494;-76
2022/04/16 04:17:50;;;;;;;4.03;3.50;;;12.20;96.10;;;;;;4996206;28;20201;-76
2022/04/16 04:20:16;;;;;;;4.10;3.20;;;12.20;96.00;;;;;;4997654;28;20260;-76
2022/04/16 04:22:42;;;;;;;4.10;3.70;;;12.10;96.30;;;;;;5001636;28;21100;-76
2022/04/16 04:25:07;;;;;;;3.77;3.37;;;12.10;96.50;;;;;;4997985;28;20188;-76
2022/04/16 04:27:33;;;;;;;4.30;3.57;;;12.10;96.50;;;;;;5004059;28;20185;-76
2022/04/16 04:30:01;;;;;;;3.97;3.57;;;12.20;96.50;;;;;;4998048;28;20281;-76
2022/04/16 04:32:30;;;;;;;4.40;3.27;;;12.20;96.50;;;;;;5000630;28;20709;-76
2022/04/16 04:34:55;;;;;;;3.73;3.43;;;12.10;96.50;;;;;;5002817;28;20431;-76
2022/04/16 04:37:21;;;;;;;4.37;3.73;;;12.10;96.70;;;;;;5000743;28;20460;-75
2022/04/16 04:39:47;;;;;;;3.80;3.50;;;12.00;96.80;;;;;;4999007;28;20332;-75
2022/04/16 04:42:12;;;;;;;6.23;3.50;;;12.00;97.00;;;;;;4999706;28;20197;-76
2022/04/16 04:44:38;;;;;;;4.23;3.83;;;12.10;97.00;;;;;;4997906;28;20567;-76
2022/04/16 04:47:04;;;;;;;3.43;3.13;;;12.00;96.80;;;;;;4999670;28;20211;-74
2022/04/16 04:49:29;;;;;;;4.23;3.10;;;12.00;97.10;;;;;;5000199;28;20268;-76
2022/04/16 04:51:55;;;;;;;4.03;3.37;;;12.00;97.10;;;;;;4994246;28;20181;-76
2022/04/16 04:54:21;;;;;;;3.50;3.20;;;11.90;97.10;;;;;;4998719;28;20299;-76
2022/04/16 04:56:47;;;;;;;4.07;3.67;;;12.00;97.40;;;;;;4995422;28;20436;-76
2022/04/16 04:59:13;;;;;;;3.60;3.23;;;12.00;97.30;;;;;;5000594;28;20448;-76
2022/04/16 05:01:38;;;;;;;5.97;3.70;;;12.00;97.30;;;;;;4997261;28;20467;-75
2022/04/16 05:04:04;;;;;;;3.30;3.00;;;11.90;97.50;;;;;;5001947;28;20224;-76
2022/04/16 05:06:30;;;;;;;3.80;3.43;;;12.00;97.50;;;;;;4999406;28;20644;-75
2022/04/16 05:08:56;;;;;;;3.87;3.47;;;11.80;97.60;;;;;;5000164;28;20177;-75
2022/04/16 05:11:21;;;;;;;3.73;3.27;;;11.80;98.10;;;;;;5003338;28;20285;-76
2022/04/16 05:13:47;;;;;;;3.60;3.30;;;11.80;98.20;;;;;;4993444;28;20429;-76
2022/04/16 05:16:13;;;;;;;3.87;3.30;;;11.90;98.00;;;;;;4997052;28;20177;-76
2022/04/16 05:18:40;;;;;;;4.23;3.70;;;11.90;97.90;;;;;;4996979;28;20268;-76
2022/04/16 05:21:06;;;;;;;4.63;3.50;;;12.00;98.20;;;;;;4996728;28;21167;-76
2022/04/16 05:23:31;;;;;;;4.33;2.93;;;12.00;98.10;;;;;;5009039;28;20428;-76
2022/04/16 05:25:57;;;;;;;4.47;3.60;;;12.00;98.20;;;;;;4993811;28;20287;-76
2022/04/16 05:28:22;;;;;;;6.00;3.60;;;12.10;98.00;;;;;;4997514;28;20181;-75
2022/04/16 05:30:48;;;;;;;8.10;4.23;;;12.10;98.00;;;;;;5000432;28;21189;-75
2022/04/16 05:36:18;;;;;;;3.90;3.50;;;12.30;97.90;;;;;;4970469;28;20193;-76
2022/04/16 05:38:44;;;;;;;3.60;3.27;;;12.20;98.00;;;;;;4989000;28;20499;-76
2022/04/16 05:41:10;;;;;;;3.50;3.20;;;12.30;97.90;;;;;;4993191;28;20289;-75
2022/04/16 05:43:36;;;;;;;4.13;3.60;;;12.30;98.00;;;;;;4998573;28;20544;-75
2022/04/16 05:46:02;;;;;;;4.07;3.60;;;12.20;98.50;;;;;;4998578;28;20182;-75
2022/04/16 05:48:28;;;;;;;4.23;3.53;;;12.20;98.30;;;;;;4997616;28;20190;-75
2022/04/16 05:50:53;;;;;;;3.37;3.07;;;12.20;98.50;;;;;;4995359;28;20816;-76
2022/04/16 05:53:21;;;;;;;4.00;3.53;;;12.20;98.50;;;;;;4998000;28;20437;-76
2022/04/16 05:55:48;;;;;;;4.10;3.37;;;12.30;98.80;;;;;;4997758;28;20816;-74
2022/04/16 05:58:14;;;;;;;3.27;2.97;;;12.40;98.50;;;;;;4996639;28;20432;-74
2022/04/16 06:00:40;;;;;;;4.53;4.10;;;12.50;98.30;;;;;;4985999;28;20906;-74
2022/04/16 06:03:06;;;;;;;4.47;3.72;;;12.50;98.50;;;;;;4995762;28;20433;-73
2022/04/16 06:05:31;;;;;;;4.03;3.63;;;12.50;98.70;;;;;;4992635;28;20177;-73
2022/04/16 06:07:58;;;;;;;4.07;3.67;;;12.50;98.70;;;;;;4992953;28;20982;-74
2022/04/16 06:10:24;;;;;;;5.03;3.93;;;12.60;98.90;;;;;;5010061;28;20784;-74
2022/04/16 06:12:49;;;;;;;4.73;4.07;;;12.60;98.90;;;;;;4993814;28;20532;-74
2022/04/16 06:15:15;;;;;;;3.63;3.30;;;12.70;99.10;;;;;;4998681;28;20181;-74
2022/04/16 06:17:40;;;;;;;4.70;4.00;;;12.60;99.30;;;;;;4998165;28;20188;-74
2022/04/16 06:20:08;;;;;;;3.77;3.37;;;12.70;99.30;;;;;;4999723;28;20218;-74
2022/04/16 06:22:37;;;;;;;3.97;3.53;;;12.80;99.10;;;;;;4993443;28;20177;-74
2022/04/16 06:25:03;;;;;;;4.17;3.60;;;12.90;98.90;;;;;;4993060;28;20523;-74
2022/04/16 06:27:28;;;;;;;4.00;3.60;;;13.00;99.00;;;;;;4989453;28;20831;-74
2022/04/16 06:29:54;;;;;;;5.20;3.87;;;13.10;99.00;;;;;;4993618;28;20515;-74
2022/04/16 06:32:20;;;;;;;5.00;4.47;;;13.20;99.10;;;;;;4996189;28;20180;-73
2022/04/16 06:34:45;;;;;;;4.00;3.60;;;13.30;98.90;;;;;;4993017;28;20208;-73
2022/04/16 06:37:11;;;;;;;4.07;3.63;;;13.40;98.70;;;;;;4990691;28;20273;-74
2022/04/16 06:39:37;;;;;;;4.33;3.93;;;13.40;99.00;;;;;;4994919;28;20215;-74
2022/04/16 06:42:03;;;;;;;5.60;3.80;;;13.40;98.70;;;;;;4994616;28;20198;-74
2022/04/16 06:44:29;;;;;;;4.13;3.70;;;13.50;98.80;;;;;;4993575;28;20248;-74
2022/04/16 06:46:54;;;;;;;4.70;4.07;;;13.40;99.00;;;;;;4991039;28;20421;-74
2022/04/16 06:49:21;;;;;;;6.00;4.07;;;13.40;99.20;;;;;;4994103;28;20975;-74
2022/04/16 06:51:47;;;;;;;4.13;3.73;;;13.30;99.30;;;;;;4989911;28;20197;-74
2022/04/16 06:54:12;;;;;;;4.83;4.30;;;13.30;99.30;;;;;;4993832;28;20432;-74
2022/04/16 06:56:38;;;;;;;6.10;4.23;;;13.40;99.20;;;;;;4989934;28;20727;-74
2022/04/16 06:59:04;;;;;;;7.43;4.27;;;13.50;99.20;;;;;;4993793;28;20206;-74
2022/04/16 07:01:30;;;;;;;4.70;4.30;;;13.50;99.50;;;;;;4990161;28;20193;-74
2022/04/16 07:03:56;;;;;;;4.90;4.40;;;13.50;99.60;;;;;;4993995;28;20971;-74
2022/04/16 07:06:21;;;;;;;6.70;4.70;;;13.50;99.50;;;;;;4991755;28;20625;-74
2022/04/16 07:08:47;;;;;;;10.90;8.40;;;13.60;99.60;;;;;;4992654;28;20208;-74
2022/04/16 07:11:12;;;;;;;12.13;9.20;;;13.60;99.70;;;;;;4995804;28;20580;-76
2022/04/16 07:13:38;;;;;;;11.10;8.27;;;13.70;99.70;;;;;;4991383;28;20231;-76
2022/04/16 07:16:04;;;;;;;7.20;6.50;;;13.70;99.80;;;;;;4995697;28;20193;-76
2022/04/16 07:18:29;;;;;;;8.90;7.07;;;13.60;99.90;;;;;;4982077;28;20197;-76
2022/04/16 07:20:55;;;;;;;6.90;5.47;;;13.70;99.90;;;;;;4989532;28;20240;-72
2022/04/16 07:23:20;;;;;;;8.07;6.33;;;13.70;99.90;;;;;;4989767;28;20193;-73
2022/04/16 07:25:46;;;;;;;5.70;5.03;;;13.70;99.90;;;;;;4989477;28;20220;-73
2022/04/16 07:28:12;;;;;;;5.90;5.30;;;13.70;99.90;;;;;;4994298;28;20188;-73
2022/04/16 07:30:38;;;;;;;9.67;5.80;;;13.70;99.90;;;;;;4990139;28;20220;-73
2022/04/16 07:33:04;;;;;;;6.40;5.50;;;13.80;99.90;;;;;;4989253;28;20436;-71
2022/04/16 07:35:29;;;;;;;7.47;5.27;;;13.70;99.90;;;;;;4990340;28;20193;-73
2022/04/16 07:37:58;;;;;;;9.07;5.40;;;13.80;99.90;;;;;;4990235;28;20184;-70
2022/04/16 07:40:25;;;;;;;5.87;5.27;;;13.70;99.90;;;;;;4990261;28;20581;-73
2022/04/16 07:42:51;;;;;;;7.20;5.50;;;13.80;99.90;;;;;;5008893;28;20930;-73
2022/04/16 07:45:16;;;;;;;5.93;5.33;;;13.90;99.90;;;;;;4991017;28;20586;-73
2022/04/16 07:47:42;;;;;;;8.97;6.40;;;14.10;99.90;;;;;;4986376;28;20247;-74
2022/04/16 07:50:08;;;;;;;6.23;5.67;;;13.90;99.90;;;;;;4990295;28;20231;-74
2022/04/16 07:52:34;;;;;;;7.07;6.20;;;14.00;99.90;;;;;;5004981;28;20200;-72
2022/04/16 07:55:00;;;;;;;12.50;10.63;;;14.10;99.90;;;;;;4992057;28;20425;-72
2022/04/16 07:57:26;;;;;;;10.97;8.73;;;14.10;99.90;;;;;;4989279;28;20462;-74
2022/04/16 07:59:53;;;;;;;8.13;6.70;;;14.10;99.90;;;;;;4990588;28;20212;-76
2022/04/16 08:02:20;;;;;;;6.83;6.13;;;14.00;99.90;;;;;;4974938;28;20204;-75
2022/04/16 08:04:45;;;;;;;8.83;6.57;;;14.10;99.90;;;;;;4994413;28;21163;-75
2022/04/16 08:07:11;;;;;;;7.60;5.80;;;14.10;99.90;;;;;;4988959;28;20409;-77
2022/04/16 08:09:36;;;;;;;7.53;5.80;;;14.10;99.90;;;;;;4996638;28;20234;-76
2022/04/16 08:12:02;;;;;;;7.83;6.77;;;14.30;99.90;;;;;;4997836;28;20233;-77
2022/04/16 08:14:38;;;;;;;8.60;7.67;;;14.40;99.90;;;;;;4994213;28;20264;-76
2022/04/16 08:17:04;;;;;;;12.50;9.17;;;14.30;99.90;;;;;;4995552;28;20842;-77
2022/04/16 08:19:30;;;;;;;6.63;5.93;;;14.30;99.90;;;;;;4995528;28;20486;-76
2022/04/16 08:21:55;;;;;;;9.40;7.43;;;14.40;99.90;;;;;;4997118;28;20182;-75
2022/04/16 08:26:56;;;;;;;6.87;6.27;;;14.40;99.90;;;;;;4991602;28;20591;-75
2022/04/16 08:29:22;;;;;;;7.90;6.40;;;14.40;99.90;;;;;;4992501;28;20467;-75
2022/04/16 08:31:49;;;;;;;7.07;6.20;;;14.40;99.90;;;;;;4994309;28;20217;-74
2022/04/16 08:34:15;;;;;;;5.43;4.93;;;14.20;99.90;;;;;;4995541;28;20428;-73
2022/04/16 08:36:40;;;;;;;6.00;5.10;;;14.20;99.90;;;;;;4995334;28;20435;-75
2022/04/16 08:39:06;;;;;;;5.97;5.20;;;14.20;99.90;;;;;;5009302;28;20460;-74
2022/04/16 08:41:32;;;;;;;6.60;5.47;;;14.20;99.90;;;;;;4992665;28;20217;-76
2022/04/16 08:43:58;;;;;;;9.60;6.10;;;14.20;99.90;;;;;;4994758;28;20216;-74
2022/04/16 08:46:27;;;;;;;7.77;5.93;;;14.30;99.90;;;;;;4999285;28;20968;-76
2022/04/16 08:48:54;;;;;;;8.70;5.97;;;14.40;99.90;;;;;;4998191;28;20951;-76
2022/04/16 08:51:20;;;;;;;6.70;5.90;;;14.40;99.90;;;;;;4998850;28;20444;-76
2022/04/16 08:53:46;;;;;;;6.57;5.67;;;14.50;99.90;;;;;;5003171;28;20491;-74
2022/04/16 08:56:11;;;;;;;6.17;5.10;;;14.50;99.90;;;;;;4999195;28;20463;-75
2022/04/16 08:58:38;;;;;;;6.30;5.70;;;14.50;99.90;;;;;;5000041;28;20455;-77
2022/04/16 09:01:04;;;;;;;6.20;5.60;;;14.60;99.90;;;;;;5001987;28;20221;-73
2022/04/16 09:03:37;;;;;;;5.77;5.17;;;14.60;99.90;;;;;;4998159;28;20997;-75
2022/04/16 09:06:04;;;;;;;7.00;5.40;;;14.60;99.90;;;;;;4997396;28;20191;-75
2022/04/16 09:08:31;;;;;;;5.80;5.30;;;14.60;99.90;;;;;;4995476;28;20444;-76
2022/04/16 09:11:11;;;;;;;6.47;5.77;;;14.60;99.90;;;;;;4994241;28;20483;-74
2022/04/16 09:13:49;;;;;;;6.60;5.83;;;14.70;99.90;;;;;;4997457;28;20431;-75
2022/04/16 09:16:15;;;;;;;6.37;5.73;;;14.70;99.90;;;;;;4992574;28;20981;-70
2022/04/16 09:18:51;;;;;;;7.20;6.23;;;14.80;99.90;;;;;;4991658;28;20429;-72
2022/04/16 09:21:24;;;;;;;7.20;5.77;;;14.90;98.90;;;;;;4996262;28;20460;-71
2022/04/16 09:23:53;;;;;;;9.63;6.70;;;14.80;98.50;;;;;;4994549;28;20439;-71
2022/04/16 09:26:25;;;;;;;6.60;6.00;;;14.70;98.70;;;;;;4993164;28;20795;-72
2022/04/16 09:28:51;;;;;;;6.80;6.00;;;14.80;98.80;;;;;;4991992;28;21286;-72
2022/04/16 09:31:18;;;;;;;7.57;6.03;;;14.80;99.10;;;;;;4994355;28;20449;-72
2022/04/16 09:33:45;;;;;;;6.90;5.67;;;14.80;99.10;;;;;;4993042;28;20571;-72
2022/04/16 09:36:10;;;;;;;7.50;5.80;;;14.90;99.40;;;;;;4993372;28;20502;-72
2022/04/16 09:38:37;;;;;;;6.33;5.30;;;14.90;99.20;;;;;;4993155;28;20431;-71
2022/04/16 09:41:08;;;;;;;7.00;6.30;;;14.90;98.20;;;;;;4993789;28;20209;-72
2022/04/16 09:43:37;;;;;;;5.53;5.03;;;14.90;97.80;;;;;;4995398;28;21206;-71
2022/04/16 09:46:11;;;;;;;7.53;5.57;;;15.00;97.70;;;;;;4994501;28;20445;-72
2022/04/16 09:48:37;;;;;;;6.37;5.73;;;15.10;97.70;;;;;;4993057;28;20495;-72
2022/04/16 09:51:05;;;;;;;8.10;6.60;;;15.10;97.30;;;;;;4992938;28;20559;-73
2022/04/16 09:53:31;;;;;;;8.53;6.23;;;15.20;97.30;;;;;;4993490;28;21009;-73
2022/04/16 09:55:59;;;;;;;7.37;6.30;;;15.10;97.60;;;;;;4992368;28;20522;-73
2022/04/16 09:58:37;;;;;;;6.97;6.27;;;15.20;97.40;;;;;;4992302;28;20459;-72
2022/04/16 10:01:03;;;;;;;6.83;6.13;;;15.30;97.20;;;;;;4991920;28;21034;-70
2022/04/16 10:03:29;;;;;;;7.63;6.50;;;15.40;96.50;;;;;;4994889;28;20436;-73
2022/04/16 10:05:59;;;;;;;11.47;10.10;;;15.40;96.80;;;;;;4991241;28;20232;-73
2022/04/16 10:08:28;;;;;;;7.57;6.50;;;15.50;96.60;;;;;;4996137;28;20910;-72
2022/04/16 10:10:57;;;;;;;7.17;5.53;;;15.60;96.10;;;;;;4993777;28;20502;-73
2022/04/16 10:13:23;;;;;;;11.87;9.33;;;15.60;95.50;;;;;;4989852;28;20457;-72
2022/04/16 10:15:58;;;;;;;8.63;6.93;;;15.60;95.10;;;;;;4990032;28;20808;-72
2022/04/16 10:18:24;;;;;;;10.00;7.33;;;15.60;94.80;;;;;;4995351;28;20431;-71
2022/04/16 10:20:58;;;;;;;7.20;6.23;;;15.60;94.70;;;;;;4991166;28;20472;-71
2022/04/16 10:23:40;;;;;;;6.10;5.50;;;15.70;94.20;;;;;;4995123;28;20437;-71
2022/04/16 10:26:11;;;;;;;5.93;5.33;;;15.50;94.60;;;;;;4995372;28;20424;-71
2022/04/16 10:28:41;;;;;;;5.80;4.40;;;15.60;93.60;;;;;;4991590;28;20436;-70
2022/04/16 10:31:28;;;;;;;4.67;4.00;;;15.70;93.40;;;;;;4990755;28;21209;-68
2022/04/16 10:33:58;;;;;;;5.27;4.77;;;15.60;93.30;;;;;;4988381;28;20894;-74
2022/04/16 10:36:32;;;;;;;5.90;5.30;;;15.80;93.60;;;;;;4991968;28;20445;-77
2022/04/16 10:39:00;;;;;;;5.93;4.87;;;15.80;95.60;;;;;;4993215;28;20436;-76
2022/04/16 10:41:27;;;;;;;6.17;4.53;;;16.00;94.90;;;;;;4990664;28;20603;-74
2022/04/16 10:43:57;;;;;;;5.77;5.20;;;16.20;94.30;;;;;;4991347;28;20495;-74
2022/04/16 10:46:23;;;;;;;5.60;4.60;;;16.30;93.30;;;;;;4993242;28;20833;-73
2022/04/16 10:48:49;;;;;;;5.50;4.50;;;16.40;93.00;;;;;;4994849;28;20441;-73
2022/04/16 10:51:21;;;;;;;5.77;4.97;;;16.30;92.40;;;;;;4993906;28;20443;-76
2022/04/16 10:53:46;;;;;;;4.87;4.23;;;16.30;92.00;;;;;;4995201;28;20416;-74
2022/04/16 10:56:17;;;;;;;9.00;4.13;;;16.40;91.20;;;;;;4990217;28;20420;-74
2022/04/16 10:58:46;;;;;;;4.30;3.90;;;16.40;91.20;;;;;;4993125;28;21026;-75
2022/04/16 11:01:22;;;;;;;4.67;4.13;;;16.50;89.80;;;;;;4992588;28;20470;-72
2022/04/16 11:03:48;;;;;;;4.13;3.73;;;16.60;89.60;;;;;;4992096;28;20421;-76
2022/04/16 11:06:16;;;;;;;7.10;3.00;;;16.80;89.40;;;;;;4993421;28;20455;-73
2022/04/16 11:08:42;;;;;;;3.80;3.40;;;16.90;85.60;;;;;;4989148;28;20544;-74
2022/04/16 11:11:09;;;;;;;3.03;2.83;;;16.90;83.80;;;;;;4990703;28;20862;-74
2022/04/16 11:13:36;;;;;;;3.40;3.03;;;16.80;83.30;;;;;;4993386;28;20447;-74
2022/04/16 11:16:03;;;;;;;4.23;3.47;;;16.90;84.50;;;;;;4993299;28;21047;-74
2022/04/16 11:18:43;;;;;;;4.33;3.70;;;17.00;83.70;;;;;;4991773;28;20440;-74
2022/04/16 11:21:11;;;;;;;4.60;4.03;;;17.10;83.80;;;;;;4999657;28;20828;-76
2022/04/16 11:23:42;;;;;;;6.07;4.23;;;17.00;82.60;;;;;;4991288;28;20424;-73
2022/04/16 11:34:31;;;;;;;4.30;3.90;;;16.80;83.40;;;;;;4998986;28;20478;-75
2022/04/16 11:36:58;;;;;;;5.20;4.20;;;16.90;81.50;;;;;;4996222;28;20715;-74
2022/04/16 11:39:31;;;;;;;3.80;3.40;;;16.90;82.50;;;;;;4993374;28;20461;-76
2022/04/16 11:41:59;;;;;;;4.93;3.70;;;17.00;81.70;;;;;;5017675;28;20517;-76
2022/04/16 11:44:42;;;;;;;3.97;3.57;;;17.10;81.10;;;;;;5000297;28;20425;-76
2022/04/16 11:47:13;;;;;;;4.50;3.80;;;17.20;80.80;;;;;;5000823;28;20432;-75
2022/04/16 11:49:51;;;;;;;3.60;3.30;;;17.10;80.00;;;;;;5001491;28;20433;-76
2022/04/16 11:52:23;;;;;;;4.53;3.97;;;17.20;80.20;;;;;;4995842;28;20531;-75
2022/04/16 11:55:10;;;;;;;3.80;3.50;;;17.40;79.40;;;;;;5000493;28;20878;-76
2022/04/16 11:57:39;;;;;;;4.40;3.70;;;17.60;80.00;;;;;;5001403;28;20512;-74
2022/04/16 12:00:07;;;;;;;3.90;3.50;;;17.80;78.40;;;;;;4990225;28;20494;-74
2022/04/16 12:02:39;;;;;;;3.63;3.30;;;17.90;78.40;;;;;;4996790;28;20431;-76
2022/04/16 12:05:13;;;;;;;4.63;4.23;;;18.20;76.70;;;;;;4990381;28;20441;-74
2022/04/16 12:07:40;;;;;;;3.90;3.30;;;18.70;75.10;;;;;;4991146;28;20526;-75
2022/04/16 12:10:06;;;;;;;8.40;3.40;;;19.30;72.50;;;;;;4990169;28;21050;-75
2022/04/16 12:12:46;;;;;;;3.13;2.83;;;19.50;72.00;;;;;;4991470;28;20466;-75
2022/04/16 12:15:12;;;;;;;3.67;3.33;;;20.00;70.80;;;;;;4993841;28;20200;-77
2022/04/16 12:17:40;;;;;;;3.47;3.17;;;20.50;68.50;;;;;;4993081;28;20587;-75
2022/04/16 12:20:11;;;;;;;4.00;3.60;;;20.50;68.10;;;;;;4997059;28;21000;-71
2022/04/16 12:22:59;;;;;;;4.83;3.50;;;20.70;66.00;;;;;;4996416;28;20570;-75
2022/04/16 12:25:25;;;;;;;3.50;3.20;;;21.10;66.90;;;;;;4995181;28;20439;-75
2022/04/16 12:27:59;;;;;;;4.40;4.00;;;21.30;61.20;;;;;;4996838;28;20445;-75
2022/04/16 12:30:26;;;;;;;3.90;3.13;;;21.40;60.40;;;;;;5003090;28;20452;-75
2022/04/16 12:33:07;;;;;;;6.30;3.20;;;21.50;60.60;;;;;;4995122;28;20471;-77
2022/04/16 12:35:37;;;;;;;3.90;3.50;;;21.70;60.80;;;;;;4998871;28;20436;-76
2022/04/16 12:38:04;;;;;;;4.57;3.60;;;22.00;59.40;;;;;;4997403;28;20445;-75
2022/04/16 12:40:31;;;;;;;3.93;3.50;;;21.60;58.90;;;;;;4992119;28;21189;-76
2022/04/16 12:42:58;;;;;;;4.30;3.67;;;21.70;59.10;;;;;;4997764;28;20427;-74
2022/04/16 12:45:25;;;;;;;5.33;3.30;;;21.70;58.30;;;;;;4993878;28;20432;-75
2022/04/16 12:47:51;;;;;;;4.43;3.10;;;21.70;56.90;;;;;;4996680;28;21038;-76
2022/04/16 12:50:16;;;;;;;4.37;3.97;;;21.80;58.40;;;;;;4993583;28;20475;-75
2022/04/16 12:52:43;;;;;;;3.83;3.43;;;22.00;57.60;;;;;;4999613;28;21200;-76
2022/04/16 12:55:10;;;;;;;5.40;3.60;;;22.00;55.60;;;;;;4988332;28;20173;-77
2022/04/16 12:57:36;;;;;;;4.00;3.60;;;21.60;55.30;;;;;;4996005;28;20927;-75
2022/04/16 13:00:05;;;;;;;3.67;3.37;;;21.70;55.20;;;;;;4991574;28;20476;-77
2022/04/16 13:02:31;;;;;;;4.20;3.80;;;21.80;54.90;;;;;;4993567;28;20530;-73
2022/04/16 13:04:57;;;;;;;6.80;4.70;;;21.70;55.40;;;;;;4991284;28;20436;-77
2022/04/16 13:07:22;;;;;;;4.27;3.57;;;21.80;55.60;;;;;;4996752;28;20441;-76
2022/04/16 13:09:48;;;;;;;4.37;3.97;;;21.70;55.60;;;;;;4985850;28;20201;-76
2022/04/16 13:12:19;;;;;;;4.40;4.00;;;21.50;55.00;;;;;;4988851;28;20190;-77